Time;durP1;ratioP1;P1;durP2;ratioP2;P2;SDS_P1;SDS_P2;PMS_P1;PMS_P2;Temp;Humidity;BMP_temperature;BMP_pressure;BME280_temperature;BME280_humidity;BME280_pressure;Samples;Min_cycle;Max_cycle;Signal;HPM_P1;HPM_P2
2021/09/09 00:01:00;;;;;;;11.50;8.80;;;18.20;99.90;;;;;;5025100;28;20428;-84
2021/09/09 00:03:25;;;;;;;9.50;8.33;;;18.20;99.90;;;;;;5039790;28;20165;-84
2021/09/09 00:05:51;;;;;;;10.67;7.80;;;18.20;99.90;;;;;;5031087;28;20169;-84
2021/09/09 00:08:17;;;;;;;11.60;8.60;;;18.20;99.90;;;;;;5029061;28;20219;-84
2021/09/09 00:10:44;;;;;;;12.17;9.03;;;18.20;99.90;;;;;;5025805;28;20197;-84
2021/09/09 00:13:10;;;;;;;12.17;8.83;;;18.20;99.90;;;;;;5025228;28;20403;-84
2021/09/09 00:15:36;;;;;;;9.70;8.80;;;18.20;99.90;;;;;;5024464;28;20425;-84
2021/09/09 00:18:01;;;;;;;10.93;7.53;;;18.20;99.90;;;;;;5024804;28;20996;-84
2021/09/09 00:20:27;;;;;;;10.30;7.63;;;18.10;99.90;;;;;;5025159;28;20164;-84
2021/09/09 00:22:53;;;;;;;16.70;8.80;;;18.10;99.90;;;;;;5007730;28;20164;-84
2021/09/09 00:25:19;;;;;;;12.33;9.83;;;18.10;99.90;;;;;;5007731;28;20195;-84
2021/09/09 00:27:44;;;;;;;11.00;8.60;;;17.90;99.90;;;;;;5023831;28;20157;-84
2021/09/09 00:30:11;;;;;;;9.10;8.20;;;17.90;99.90;;;;;;5034537;28;20252;-83
2021/09/09 00:32:37;;;;;;;14.60;9.37;;;17.80;99.90;;;;;;5036020;28;20221;-82
2021/09/09 00:35:03;;;;;;;10.53;7.77;;;17.80;99.90;;;;;;5033867;28;20388;-84
2021/09/09 00:37:29;;;;;;;12.47;8.20;;;17.70;99.90;;;;;;5026961;28;20180;-84
2021/09/09 00:39:55;;;;;;;14.33;9.07;;;17.70;99.90;;;;;;5025638;28;20396;-84
2021/09/09 00:42:21;;;;;;;16.17;9.60;;;17.70;99.90;;;;;;5025863;28;20180;-84
2021/09/09 00:44:47;;;;;;;10.10;8.97;;;17.70;99.90;;;;;;5024877;28;20396;-84
2021/09/09 00:47:12;;;;;;;11.20;8.57;;;17.50;99.90;;;;;;5026050;28;20261;-85
2021/09/09 00:49:41;;;;;;;15.03;9.53;;;17.50;99.90;;;;;;5024026;28;20216;-84
2021/09/09 00:52:09;;;;;;;8.93;8.03;;;17.60;99.90;;;;;;5040886;28;20166;-84
2021/09/09 00:54:35;;;;;;;9.97;8.30;;;17.60;99.90;;;;;;5023840;28;20487;-84
2021/09/09 00:57:03;;;;;;;9.87;8.07;;;17.40;99.90;;;;;;5025005;28;20456;-84
2021/09/09 00:59:31;;;;;;;11.27;8.50;;;17.40;99.90;;;;;;5024675;28;20400;-84
2021/09/09 01:01:57;;;;;;;14.20;9.80;;;17.20;99.90;;;;;;5040945;28;20460;-84
2021/09/09 01:04:23;;;;;;;12.20;7.83;;;17.20;99.90;;;;;;5045811;28;20389;-83
2021/09/09 01:06:49;;;;;;;14.30;8.03;;;17.20;99.90;;;;;;5036476;28;20410;-84
2021/09/09 01:09:15;;;;;;;9.73;8.47;;;16.80;99.90;;;;;;5028859;28;20227;-84
2021/09/09 01:11:41;;;;;;;12.07;9.00;;;17.00;99.90;;;;;;5027498;28;20448;-84
2021/09/09 01:14:11;;;;;;;9.60;8.60;;;17.10;99.90;;;;;;5027768;28;20196;-84
2021/09/09 01:16:38;;;;;;;8.87;8.00;;;17.20;99.90;;;;;;5027489;28;20561;-84
2021/09/09 01:19:05;;;;;;;9.80;8.80;;;17.20;99.90;;;;;;5043114;28;20848;-85
2021/09/09 01:21:32;;;;;;;9.93;8.00;;;17.20;99.90;;;;;;5028175;28;20400;-84
2021/09/09 01:23:59;;;;;;;22.17;8.60;;;17.10;99.90;;;;;;5043458;28;20406;-84
2021/09/09 01:26:27;;;;;;;10.60;8.70;;;17.10;99.90;;;;;;5028097;28;20491;-84
2021/09/09 01:28:55;;;;;;;15.30;9.03;;;17.20;99.90;;;;;;5028594;28;20443;-84
2021/09/09 01:31:22;;;;;;;14.60;9.40;;;17.20;99.90;;;;;;5028321;28;20876;-84
2021/09/09 01:33:53;;;;;;;11.47;9.03;;;17.20;99.90;;;;;;5028845;28;20463;-84
2021/09/09 01:36:19;;;;;;;11.70;9.10;;;17.20;99.90;;;;;;5028206;28;20401;-84
2021/09/09 01:38:44;;;;;;;13.60;8.60;;;17.10;99.90;;;;;;5028090;28;20455;-84
2021/09/09 01:41:10;;;;;;;9.00;7.63;;;17.20;99.90;;;;;;5027952;28;20530;-84
2021/09/09 01:43:36;;;;;;;11.97;7.70;;;17.10;99.90;;;;;;5026762;28;20161;-84
2021/09/09 01:46:02;;;;;;;11.93;8.07;;;17.10;99.90;;;;;;5028228;28;20618;-84
2021/09/09 01:48:28;;;;;;;10.60;8.20;;;17.10;99.90;;;;;;5026730;28;20399;-84
2021/09/09 01:50:53;;;;;;;11.80;8.00;;;17.10;99.90;;;;;;5026097;28;20185;-84
2021/09/09 01:53:19;;;;;;;11.20;8.47;;;17.00;99.90;;;;;;5027320;28;20290;-84
2021/09/09 01:55:45;;;;;;;9.67;8.63;;;17.00;99.90;;;;;;5048891;28;20158;-84
2021/09/09 01:58:11;;;;;;;10.50;9.43;;;17.00;99.90;;;;;;5002436;28;20185;-84
2021/09/09 02:00:36;;;;;;;12.53;8.43;;;17.10;99.90;;;;;;5034963;28;20227;-84
2021/09/09 02:03:02;;;;;;;10.53;8.23;;;16.90;99.90;;;;;;5027247;28;20172;-84
2021/09/09 02:05:29;;;;;;;10.88;7.68;;;16.90;99.90;;;;;;5026290;28;20579;-84
2021/09/09 02:07:55;;;;;;;10.37;8.80;;;16.80;99.90;;;;;;5027037;28;20169;-85
2021/09/09 02:10:20;;;;;;;10.10;9.00;;;16.80;99.90;;;;;;5028088;28;20476;-84
2021/09/09 02:12:48;;;;;;;12.93;9.73;;;16.90;99.90;;;;;;5026033;28;20586;-84
2021/09/09 02:15:14;;;;;;;9.23;8.30;;;16.90;99.90;;;;;;5025120;28;20162;-84
2021/09/09 02:17:40;;;;;;;16.90;9.20;;;16.80;99.90;;;;;;5024386;28;20392;-84
2021/09/09 02:20:07;;;;;;;15.63;9.97;;;16.90;99.90;;;;;;5026501;28;20411;-84
2021/09/09 02:22:33;;;;;;;11.83;9.00;;;16.80;99.90;;;;;;5009235;28;20172;-84
2021/09/09 02:24:59;;;;;;;12.50;10.00;;;16.80;99.90;;;;;;5031123;28;20432;-84
2021/09/09 02:27:25;;;;;;;12.70;9.37;;;16.80;99.90;;;;;;5031483;28;20165;-84
2021/09/09 02:29:51;;;;;;;11.60;10.40;;;16.80;99.90;;;;;;5031539;28;20209;-84
2021/09/09 02:32:17;;;;;;;9.53;8.40;;;16.70;99.90;;;;;;5027902;28;20181;-84
2021/09/09 02:34:43;;;;;;;12.00;8.63;;;16.70;99.90;;;;;;5025637;28;20467;-84
2021/09/09 02:37:09;;;;;;;10.87;8.60;;;16.60;99.90;;;;;;5026311;28;20192;-84
2021/09/09 02:39:36;;;;;;;12.57;9.03;;;16.60;99.90;;;;;;5024586;28;20424;-84
2021/09/09 02:42:03;;;;;;;11.17;9.30;;;16.20;99.90;;;;;;5023997;28;20484;-84
2021/09/09 02:44:28;;;;;;;9.20;8.30;;;16.40;99.90;;;;;;5025093;28;20389;-84
2021/09/09 02:46:54;;;;;;;11.20;8.73;;;16.40;99.90;;;;;;5040409;28;20476;-84
2021/09/09 02:49:20;;;;;;;11.13;9.13;;;16.50;99.90;;;;;;5024315;28;20202;-84
2021/09/09 02:51:46;;;;;;;10.53;8.67;;;16.50;99.90;;;;;;5024231;28;20199;-84
2021/09/09 02:54:11;;;;;;;9.80;8.80;;;16.60;99.90;;;;;;5025052;28;20698;-84
2021/09/09 02:56:37;;;;;;;10.23;7.93;;;16.60;99.90;;;;;;5024840;28;20223;-84
2021/09/09 02:59:03;;;;;;;10.33;9.23;;;16.50;99.90;;;;;;5024475;28;20165;-84
2021/09/09 03:01:29;;;;;;;11.13;9.70;;;16.40;99.90;;;;;;5039747;28;20177;-84
2021/09/09 03:03:55;;;;;;;10.73;9.63;;;16.50;99.90;;;;;;4990471;28;20404;-83
2021/09/09 03:06:21;;;;;;;11.07;9.40;;;16.50;99.90;;;;;;5040249;28;20189;-83
2021/09/09 03:08:46;;;;;;;13.20;9.30;;;16.40;99.90;;;;;;5022420;28;20572;-83
2021/09/09 03:11:12;;;;;;;11.10;8.80;;;16.50;99.90;;;;;;5022694;28;20244;-83
2021/09/09 03:13:38;;;;;;;11.47;8.67;;;16.50;99.90;;;;;;5022568;28;20161;-83
2021/09/09 03:16:04;;;;;;;9.70;8.70;;;16.50;99.90;;;;;;5024545;28;20311;-83
2021/09/09 03:18:30;;;;;;;15.30;9.87;;;16.50;99.90;;;;;;5024226;28;20611;-83
2021/09/09 03:20:56;;;;;;;13.20;8.50;;;16.50;99.90;;;;;;5024512;28;20476;-83
2021/09/09 03:23:22;;;;;;;15.17;9.83;;;16.40;99.90;;;;;;5024177;28;20399;-83
2021/09/09 03:25:47;;;;;;;10.20;9.10;;;16.40;99.90;;;;;;5023550;28;20166;-83
2021/09/09 03:28:14;;;;;;;11.67;9.50;;;16.40;99.90;;;;;;5027776;28;20176;-83
2021/09/09 03:30:39;;;;;;;14.47;9.07;;;16.40;99.90;;;;;;5023634;28;20200;-83
2021/09/09 03:33:06;;;;;;;11.67;8.43;;;16.40;99.90;;;;;;5029481;28;20404;-82
2021/09/09 03:35:33;;;;;;;12.97;9.43;;;16.40;99.90;;;;;;5032230;28;20173;-83
2021/09/09 03:37:59;;;;;;;13.00;9.73;;;16.40;99.90;;;;;;5024188;28;20392;-83
2021/09/09 03:40:24;;;;;;;9.23;8.33;;;16.40;99.90;;;;;;5022435;28;20470;-83
2021/09/09 03:42:50;;;;;;;14.23;10.27;;;16.40;99.90;;;;;;5023391;28;20169;-83
2021/09/09 03:45:16;;;;;;;10.57;9.57;;;16.30;99.90;;;;;;5023162;28;20166;-84
2021/09/09 03:47:42;;;;;;;9.57;8.57;;;16.40;99.90;;;;;;5022247;28;20172;-83
2021/09/09 03:50:08;;;;;;;12.10;9.27;;;16.30;99.90;;;;;;5023281;28;20224;-83
2021/09/09 03:52:34;;;;;;;10.93;9.77;;;16.30;99.90;;;;;;5022347;28;20278;-83
2021/09/09 03:55:00;;;;;;;12.60;9.90;;;16.20;99.90;;;;;;5023734;28;20396;-83
2021/09/09 03:57:26;;;;;;;12.20;9.23;;;16.20;99.90;;;;;;5022703;28;20165;-83
2021/09/09 03:59:52;;;;;;;12.40;9.67;;;16.20;99.90;;;;;;5023167;28;20193;-83
2021/09/09 04:02:17;;;;;;;12.27;9.07;;;16.20;99.90;;;;;;5039389;28;20196;-83
2021/09/09 04:04:44;;;;;;;12.80;10.43;;;16.20;99.90;;;;;;5022014;28;20158;-85
2021/09/09 04:07:09;;;;;;;10.63;9.63;;;16.20;99.90;;;;;;5021267;28;20169;-84
2021/09/09 04:09:37;;;;;;;11.53;8.40;;;16.20;99.90;;;;;;5038860;28;20514;-84
2021/09/09 04:12:04;;;;;;;11.87;9.13;;;16.20;99.90;;;;;;5039549;28;20231;-84
2021/09/09 04:14:31;;;;;;;9.77;7.93;;;16.10;99.90;;;;;;5023265;28;20397;-84
2021/09/09 04:16:58;;;;;;;17.50;9.77;;;16.00;99.90;;;;;;5021440;28;20495;-84
2021/09/09 04:19:23;;;;;;;13.47;9.93;;;16.10;99.90;;;;;;5021726;28;20424;-84
2021/09/09 04:21:51;;;;;;;17.60;9.50;;;16.00;99.90;;;;;;5022115;28;20404;-84
2021/09/09 04:24:17;;;;;;;13.00;10.10;;;16.00;99.90;;;;;;5023097;28;20640;-83
2021/09/09 04:26:43;;;;;;;13.23;10.17;;;16.00;99.90;;;;;;5023005;28;20466;-84
2021/09/09 04:29:09;;;;;;;11.13;9.03;;;16.00;99.90;;;;;;5022038;28;20447;-84
2021/09/09 04:31:35;;;;;;;11.90;9.90;;;16.00;99.90;;;;;;5039468;28;20730;-84
2021/09/09 04:34:01;;;;;;;10.73;9.47;;;16.10;99.90;;;;;;5026620;28;20184;-83
2021/09/09 04:36:27;;;;;;;12.47;9.17;;;16.10;99.90;;;;;;5020957;28;20168;-84
2021/09/09 04:38:53;;;;;;;12.98;10.10;;;16.10;99.90;;;;;;5037506;28;20407;-84
2021/09/09 04:41:19;;;;;;;12.73;9.50;;;15.90;99.90;;;;;;5023416;28;20165;-84
2021/09/09 04:43:46;;;;;;;15.00;9.10;;;15.70;99.90;;;;;;5025495;28;20295;-84
2021/09/09 04:46:12;;;;;;;11.20;8.13;;;15.80;99.90;;;;;;5025167;28;20169;-83
2021/09/09 04:48:38;;;;;;;12.70;8.73;;;15.80;99.90;;;;;;5024582;28;20492;-83
2021/09/09 04:51:05;;;;;;;12.20;9.30;;;15.70;99.90;;;;;;4995016;28;20630;-84
2021/09/09 04:53:40;;;;;;;16.70;10.47;;;15.60;99.90;;;;;;5045497;28;20443;-84
2021/09/09 04:56:05;;;;;;;16.03;12.20;;;15.60;99.90;;;;;;5026274;28;20760;-84
2021/09/09 04:58:31;;;;;;;13.43;10.43;;;15.30;99.90;;;;;;5028187;28;20388;-83
2021/09/09 05:00:57;;;;;;;12.37;10.70;;;15.40;99.90;;;;;;5028969;28;20168;-84
2021/09/09 05:03:23;;;;;;;12.77;10.60;;;15.20;99.90;;;;;;5025870;28;20411;-83
2021/09/09 05:05:49;;;;;;;16.53;10.53;;;15.00;99.90;;;;;;5024936;28;20157;-83
2021/09/09 05:08:45;;;;;;;10.90;9.20;;;15.30;99.90;;;;;;5027083;28;20231;-84
2021/09/09 05:11:11;;;;;;;10.20;8.97;;;15.30;99.90;;;;;;5041120;28;20201;-83
2021/09/09 05:13:38;;;;;;;9.50;8.47;;;14.50;99.90;;;;;;5026930;28;20811;-84
2021/09/09 05:16:06;;;;;;;10.70;7.97;;;14.40;99.90;;;;;;5044973;28;20408;-84
2021/09/09 05:18:31;;;;;;;15.27;9.77;;;14.40;99.90;;;;;;5042835;28;20411;-84
2021/09/09 05:20:57;;;;;;;13.97;8.10;;;14.20;99.90;;;;;;5030867;28;20400;-84
2021/09/09 05:23:23;;;;;;;10.40;8.67;;;14.10;99.90;;;;;;5044246;28;20188;-84
2021/09/09 05:25:49;;;;;;;9.10;8.20;;;14.30;99.90;;;;;;5019828;28;20428;-83
2021/09/09 05:28:15;;;;;;;12.57;10.27;;;14.60;99.90;;;;;;5019614;28;20172;-84
2021/09/09 05:30:45;;;;;;;11.57;9.80;;;15.00;99.90;;;;;;5043716;28;20196;-84
2021/09/09 05:33:14;;;;;;;12.50;10.73;;;15.30;99.90;;;;;;5026748;28;20181;-85
2021/09/09 05:35:40;;;;;;;11.80;10.60;;;15.60;99.90;;;;;;5006987;28;20411;-84
2021/09/09 05:38:07;;;;;;;12.30;10.27;;;15.80;99.90;;;;;;5010608;28;20181;-84
2021/09/09 05:40:33;;;;;;;11.90;10.10;;;15.80;99.90;;;;;;5023188;28;20837;-84
2021/09/09 05:42:59;;;;;;;18.97;10.80;;;16.00;99.90;;;;;;5003367;28;20429;-84
2021/09/09 05:45:25;;;;;;;14.07;10.17;;;16.10;99.90;;;;;;5013107;28;20174;-84
2021/09/09 05:47:50;;;;;;;14.83;10.47;;;16.10;99.90;;;;;;5002781;28;20190;-84
2021/09/09 05:50:18;;;;;;;11.00;9.80;;;16.10;99.90;;;;;;5003863;28;20166;-83
2021/09/09 05:53:17;;;;;;;13.13;11.83;;;16.00;99.90;;;;;;4986903;28;20209;-85
2021/09/09 05:55:43;;;;;;;14.87;10.93;;;16.10;99.90;;;;;;4971019;28;20482;-83
2021/09/09 05:58:08;;;;;;;12.97;11.60;;;16.10;99.90;;;;;;4964444;28;20574;-84
2021/09/09 06:00:34;;;;;;;17.83;10.87;;;15.90;99.90;;;;;;4951261;28;20210;-83
2021/09/09 06:03:01;;;;;;;13.50;10.23;;;15.90;99.90;;;;;;4983952;28;20171;-83
2021/09/09 06:05:28;;;;;;;12.10;10.67;;;16.10;99.90;;;;;;4988166;28;20206;-84
2021/09/09 06:07:54;;;;;;;19.20;10.40;;;15.70;99.90;;;;;;5022614;28;20424;-84
2021/09/09 06:10:22;;;;;;;14.57;12.60;;;15.70;99.90;;;;;;4984076;28;20429;-84
2021/09/09 06:12:48;;;;;;;14.43;10.47;;;15.60;99.90;;;;;;4978670;28;20416;-83
2021/09/09 06:15:13;;;;;;;11.27;9.90;;;15.70;99.90;;;;;;5025167;28;20455;-83
2021/09/09 06:17:39;;;;;;;11.33;9.43;;;15.70;99.90;;;;;;4992014;28;20204;-83
2021/09/09 06:20:06;;;;;;;11.63;10.43;;;15.90;99.90;;;;;;4998443;28;20220;-83
2021/09/09 06:22:32;;;;;;;10.70;9.30;;;16.10;99.90;;;;;;5013158;28;20198;-82
2021/09/09 06:24:57;;;;;;;12.30;11.00;;;16.20;99.90;;;;;;5010403;28;20813;-81
2021/09/09 06:27:23;;;;;;;15.73;10.87;;;16.40;99.90;;;;;;5014822;28;20196;-83
2021/09/09 06:29:49;;;;;;;11.07;9.53;;;16.20;99.90;;;;;;5027554;28;20204;-84
2021/09/09 06:32:15;;;;;;;11.63;9.47;;;16.30;99.90;;;;;;5004333;28;20236;-84
2021/09/09 06:34:41;;;;;;;13.67;10.27;;;16.20;99.90;;;;;;5013074;28;20199;-84
2021/09/09 06:37:06;;;;;;;17.93;10.87;;;16.10;99.90;;;;;;5002970;28;20273;-84
2021/09/09 06:39:32;;;;;;;13.33;9.33;;;16.20;99.90;;;;;;4997045;28;20256;-84
2021/09/09 06:41:58;;;;;;;14.03;10.17;;;16.20;99.90;;;;;;5016600;28;20172;-84
2021/09/09 06:44:24;;;;;;;14.60;9.83;;;16.30;99.90;;;;;;5016088;28;20208;-84
2021/09/09 06:46:50;;;;;;;10.33;9.23;;;16.20;99.90;;;;;;5005634;28;20352;-83
2021/09/09 06:49:15;;;;;;;12.00;9.67;;;16.10;99.90;;;;;;5005155;28;20181;-83
2021/09/09 06:51:42;;;;;;;15.67;10.03;;;15.90;99.90;;;;;;5023055;28;20211;-84
2021/09/09 06:54:09;;;;;;;10.80;9.77;;;16.20;99.90;;;;;;5023649;28;20504;-84
2021/09/09 06:56:35;;;;;;;11.97;9.57;;;16.10;99.90;;;;;;5023965;28;20177;-84
2021/09/09 06:59:00;;;;;;;11.17;9.67;;;16.30;99.90;;;;;;5026179;28;20460;-84
2021/09/09 07:01:26;;;;;;;15.13;8.17;;;16.30;99.90;;;;;;5021213;28;20196;-83
2021/09/09 07:03:52;;;;;;;11.50;8.90;;;16.20;99.90;;;;;;5025308;28;20240;-84
2021/09/09 07:06:18;;;;;;;12.23;10.30;;;16.50;99.90;;;;;;5028015;28;20192;-83
2021/09/09 07:08:44;;;;;;;10.40;9.47;;;16.60;99.90;;;;;;5031946;28;20232;-82
2021/09/09 07:11:09;;;;;;;14.80;9.80;;;16.80;99.90;;;;;;5031458;28;20180;-80
2021/09/09 07:13:36;;;;;;;10.37;8.97;;;16.80;99.90;;;;;;5033948;28;20157;-81
2021/09/09 07:16:02;;;;;;;10.73;9.63;;;16.60;99.90;;;;;;5033546;28;20177;-80
2021/09/09 07:18:29;;;;;;;11.47;8.97;;;16.70;99.90;;;;;;5000692;28;20497;-80
2021/09/09 07:20:56;;;;;;;11.77;8.60;;;16.90;99.90;;;;;;5027954;28;20470;-81
2021/09/09 07:23:22;;;;;;;11.50;9.80;;;16.90;99.90;;;;;;5012970;28;20444;-80
2021/09/09 07:25:48;;;;;;;9.83;8.30;;;17.00;99.90;;;;;;4997278;28;20405;-80
2021/09/09 07:28:15;;;;;;;12.43;10.70;;;17.10;99.90;;;;;;5018388;28;20428;-80
2021/09/09 07:30:41;;;;;;;11.90;10.73;;;17.30;99.90;;;;;;5034035;28;20404;-80
2021/09/09 07:33:07;;;;;;;19.43;10.03;;;17.30;99.90;;;;;;5034370;28;20428;-81
2021/09/09 07:35:33;;;;;;;15.43;9.13;;;17.60;99.90;;;;;;5014585;28;20470;-80
2021/09/09 07:38:00;;;;;;;12.30;9.93;;;17.40;99.90;;;;;;5031510;28;20416;-82
2021/09/09 07:40:26;;;;;;;9.70;8.70;;;17.50;99.90;;;;;;4995255;28;20470;-84
2021/09/09 07:42:53;;;;;;;13.03;9.00;;;17.70;99.90;;;;;;5030931;28;20499;-82
2021/09/09 07:45:18;;;;;;;12.07;8.77;;;17.80;99.90;;;;;;5016767;28;20431;-83
2021/09/09 07:47:45;;;;;;;13.40;10.50;;;17.90;99.90;;;;;;5034429;28;20177;-82
2021/09/09 07:50:11;;;;;;;11.57;9.93;;;17.90;99.90;;;;;;5028529;28;20200;-82
2021/09/09 07:52:40;;;;;;;12.40;10.07;;;18.10;99.90;;;;;;5032807;28;20478;-81
2021/09/09 07:55:08;;;;;;;9.83;8.90;;;18.40;99.90;;;;;;5014229;28;20470;-80
2021/09/09 07:57:34;;;;;;;17.43;9.40;;;18.40;99.90;;;;;;5015476;28;20420;-80
2021/09/09 08:00:00;;;;;;;11.20;8.27;;;18.50;99.90;;;;;;4976106;28;20482;-80
2021/09/09 08:02:26;;;;;;;10.53;9.03;;;18.70;99.90;;;;;;4982294;28;20433;-80
2021/09/09 08:04:52;;;;;;;10.80;9.70;;;18.90;99.90;;;;;;4950785;28;20268;-81
2021/09/09 08:07:18;;;;;;;13.33;9.07;;;19.20;99.90;;;;;;4981393;28;20177;-81
2021/09/09 08:09:44;;;;;;;16.83;10.53;;;19.20;99.90;;;;;;4974280;28;20455;-81
2021/09/09 08:12:10;;;;;;;11.03;9.77;;;19.50;99.90;;;;;;4984229;28;20460;-80
2021/09/09 08:14:36;;;;;;;9.07;7.63;;;19.50;99.90;;;;;;4992097;28;20230;-83
2021/09/09 08:17:03;;;;;;;9.77;8.37;;;19.60;99.90;;;;;;4986635;28;20429;-83
2021/09/09 08:19:29;;;;;;;9.80;8.80;;;19.70;99.90;;;;;;4969034;28;20470;-83
2021/09/09 08:21:55;;;;;;;12.73;8.87;;;19.70;99.90;;;;;;4990603;28;20428;-83
2021/09/09 08:24:21;;;;;;;12.87;8.40;;;20.00;99.90;;;;;;4986004;28;20430;-83
2021/09/09 08:26:46;;;;;;;12.67;10.33;;;20.10;99.90;;;;;;4999905;28;20265;-83
2021/09/09 08:29:12;;;;;;;14.40;9.17;;;20.00;99.90;;;;;;5010886;28;20233;-83
2021/09/09 08:31:38;;;;;;;10.10;9.10;;;20.00;99.90;;;;;;4997902;28;20200;-83
2021/09/09 08:34:05;;;;;;;14.93;13.43;;;19.90;99.90;;;;;;5000084;28;20424;-83
2021/09/09 08:36:31;;;;;;;10.33;9.40;;;20.20;99.90;;;;;;5009312;28;20193;-83
2021/09/09 08:38:57;;;;;;;12.47;7.60;;;20.40;99.90;;;;;;5001167;28;20463;-82
2021/09/09 08:41:24;;;;;;;15.23;8.43;;;20.50;99.90;;;;;;5018724;28;20799;-84
2021/09/09 08:43:50;;;;;;;12.60;9.47;;;20.70;99.90;;;;;;5023149;28;20177;-82
2021/09/09 08:46:17;;;;;;;9.10;8.30;;;20.80;99.90;;;;;;5028181;28;20412;-83
2021/09/09 08:48:44;;;;;;;12.90;8.37;;;20.90;99.90;;;;;;5010812;28;20208;-83
2021/09/09 08:51:11;;;;;;;9.63;8.50;;;21.20;99.90;;;;;;5020494;28;20419;-81
2021/09/09 08:53:40;;;;;;;9.57;7.93;;;21.30;99.90;;;;;;5018856;28;20806;-82
2021/09/09 08:56:08;;;;;;;9.03;8.13;;;21.20;99.90;;;;;;5018927;28;20800;-82
2021/09/09 08:58:36;;;;;;;9.83;8.43;;;21.70;99.90;;;;;;5019903;28;20772;-81
2021/09/09 09:01:19;;;;;;;9.93;7.73;;;21.40;99.90;;;;;;5020745;28;20777;-83
2021/09/09 09:03:57;;;;;;;8.60;7.60;;;21.50;99.90;;;;;;5018112;28;20463;-83
2021/09/09 09:06:34;;;;;;;8.70;7.40;;;21.80;99.90;;;;;;5016145;28;20410;-82
2021/09/09 09:09:11;;;;;;;8.87;7.50;;;21.90;99.90;;;;;;5019303;28;20443;-83
2021/09/09 09:11:41;;;;;;;16.93;8.23;;;21.70;99.90;;;;;;5002045;28;20417;-83
2021/09/09 09:14:10;;;;;;;10.97;7.73;;;22.20;99.90;;;;;;5017504;28;20418;-83
2021/09/09 09:16:43;;;;;;;14.20;8.13;;;22.00;99.90;;;;;;5013087;28;20424;-84
2021/09/09 09:19:11;;;;;;;10.80;7.43;;;22.50;99.90;;;;;;5021210;28;20459;-83
2021/09/09 09:21:42;;;;;;;7.50;6.80;;;22.30;99.90;;;;;;5020143;28;20419;-83
2021/09/09 09:24:08;;;;;;;8.83;7.93;;;22.40;99.90;;;;;;5021329;28;20424;-83
2021/09/09 09:26:34;;;;;;;8.67;7.30;;;22.50;99.90;;;;;;5023433;28;20747;-83
2021/09/09 09:29:01;;;;;;;12.17;7.70;;;22.40;99.90;;;;;;5025258;28;20428;-83
2021/09/09 09:31:30;;;;;;;8.93;7.93;;;22.90;99.90;;;;;;5025513;28;20552;-83
2021/09/09 09:33:58;;;;;;;12.60;7.57;;;22.70;99.90;;;;;;5025123;28;20420;-83
2021/09/09 09:36:29;;;;;;;8.70;7.67;;;23.20;99.90;;;;;;5029048;28;20452;-83
2021/09/09 09:39:12;;;;;;;9.93;8.90;;;23.30;99.90;;;;;;5022841;28;20428;-83
2021/09/09 09:41:55;;;;;;;15.23;7.87;;;23.20;99.90;;;;;;5007653;28;20421;-83
2021/09/09 09:44:30;;;;;;;10.90;8.03;;;23.50;99.90;;;;;;5022856;28;20421;-84
2021/09/09 09:47:14;;;;;;;11.27;8.03;;;23.70;99.90;;;;;;5022864;28;20783;-83
2021/09/09 09:49:44;;;;;;;8.40;7.53;;;23.80;99.90;;;;;;5022816;28;20428;-83
2021/09/09 09:52:23;;;;;;;11.40;9.70;;;23.80;99.90;;;;;;5012102;28;20421;-83
2021/09/09 09:54:52;;;;;;;10.03;8.67;;;24.00;99.90;;;;;;4995820;28;20436;-81
2021/09/09 09:57:19;;;;;;;8.63;7.63;;;24.50;99.90;;;;;;4999704;28;21296;-83
2021/09/09 09:59:48;;;;;;;10.23;7.93;;;24.80;99.90;;;;;;4984638;28;21033;-83
2021/09/09 10:02:15;;;;;;;9.33;8.43;;;24.70;99.90;;;;;;4969373;28;20440;-83
2021/09/09 10:04:43;;;;;;;9.17;8.27;;;24.90;99.90;;;;;;5000194;28;20938;-80
2021/09/09 10:07:11;;;;;;;8.77;7.97;;;24.90;99.90;;;;;;5001629;28;20424;-82
2021/09/09 10:09:39;;;;;;;9.60;7.83;;;24.90;99.90;;;;;;5001930;28;20974;-83
2021/09/09 10:12:08;;;;;;;10.80;8.37;;;25.40;99.90;;;;;;5007230;28;20512;-83
2021/09/09 10:14:35;;;;;;;11.07;8.47;;;25.10;99.90;;;;;;5022061;28;20490;-83
2021/09/09 10:17:02;;;;;;;10.53;8.30;;;25.50;99.90;;;;;;5021956;28;20520;-82
2021/09/09 10:19:30;;;;;;;13.03;9.83;;;25.30;99.90;;;;;;4988032;28;20456;-83
2021/09/09 10:22:06;;;;;;;10.90;7.83;;;25.10;99.90;;;;;;4997318;28;20499;-84
2021/09/09 10:24:35;;;;;;;9.20;8.30;;;25.30;99.90;;;;;;5018141;28;20453;-83
2021/09/09 10:27:20;;;;;;;8.90;6.97;;;26.00;99.90;;;;;;5005343;28;20466;-83
2021/09/09 10:30:00;;;;;;;9.17;7.93;;;26.90;99.90;;;;;;5021743;28;20429;-84
2021/09/09 10:32:49;;;;;;;10.50;9.40;;;26.40;99.90;;;;;;5021963;28;20802;-83
2021/09/09 10:35:31;;;;;;;9.27;8.37;;;25.80;99.90;;;;;;4991503;28;20431;-84
2021/09/09 10:38:26;;;;;;;10.03;9.07;;;26.70;99.90;;;;;;5021896;28;20424;-83
2021/09/09 10:40:52;;;;;;;11.47;9.90;;;26.70;99.90;;;;;;4996292;28;20463;-83
2021/09/09 10:43:46;;;;;;;9.90;8.57;;;26.80;99.90;;;;;;5004939;28;20393;-83
2021/09/09 10:46:12;;;;;;;8.33;7.53;;;27.90;99.90;;;;;;5020221;28;20165;-83
2021/09/09 10:48:38;;;;;;;9.83;8.63;;;27.20;99.90;;;;;;5022220;28;20419;-83
2021/09/09 10:51:09;;;;;;;9.70;8.70;;;28.20;99.90;;;;;;5023040;28;20416;-83
2021/09/09 10:53:44;;;;;;;11.97;7.83;;;28.00;99.90;;;;;;5004669;28;20220;-84
2021/09/09 10:56:16;;;;;;;14.93;10.17;;;27.50;99.90;;;;;;5021488;28;20484;-83
2021/09/09 10:58:43;;;;;;;9.13;8.23;;;26.80;99.90;;;;;;5020637;28;20422;-84
2021/09/09 11:01:10;;;;;;;9.10;8.30;;;27.30;99.90;;;;;;5020784;28;20444;-83
2021/09/09 11:03:56;;;;;;;10.37;8.33;;;27.50;99.90;;;;;;5013575;28;20427;-83
2021/09/09 11:06:26;;;;;;;10.60;8.30;;;28.40;99.90;;;;;;5002463;28;20422;-83
2021/09/09 11:08:55;;;;;;;9.80;7.97;;;28.30;99.90;;;;;;5003259;28;20975;-82
2021/09/09 11:11:24;;;;;;;9.03;8.20;;;27.60;99.90;;;;;;5019376;28;20396;-82
2021/09/09 11:14:08;;;;;;;14.40;9.97;;;27.30;99.90;;;;;;5009445;28;20413;-83
2021/09/09 11:16:36;;;;;;;8.93;7.90;;;27.90;99.90;;;;;;5002051;28;20408;-84
2021/09/09 11:19:04;;;;;;;9.03;8.23;;;27.40;99.90;;;;;;5021455;28;20427;-84
2021/09/09 11:21:35;;;;;;;8.70;8.03;;;28.30;99.90;;;;;;5014301;28;20555;-84
2021/09/09 11:24:07;;;;;;;9.37;8.53;;;28.50;99.90;;;;;;5021280;28;20598;-83
2021/09/09 11:26:34;;;;;;;9.27;8.47;;;29.20;99.90;;;;;;5007671;28;20455;-84
2021/09/09 11:29:01;;;;;;;7.80;7.20;;;29.20;99.90;;;;;;5020460;28;20248;-84
2021/09/09 11:31:51;;;;;;;8.65;7.85;;;30.60;99.90;;;;;;4983114;28;20214;-84
2021/09/09 11:34:26;;;;;;;9.30;8.60;;;30.20;99.90;;;;;;4971948;28;20170;-84
2021/09/09 11:36:53;;;;;;;9.52;8.73;;;30.30;99.90;;;;;;5002837;28;20236;-83
2021/09/09 11:39:22;;;;;;;9.30;8.13;;;29.40;99.90;;;;;;5002333;28;20186;-85
2021/09/09 11:41:49;;;;;;;9.65;8.65;;;30.00;99.90;;;;;;5002565;28;20208;-84
2021/09/09 11:44:32;;;;;;;9.63;8.63;;;29.90;99.90;;;;;;5001585;28;20185;-85
2021/09/09 11:47:08;;;;;;;8.75;7.95;;;29.60;99.90;;;;;;4986342;28;20193;-85
2021/09/09 11:49:33;;;;;;;8.40;7.70;;;30.10;99.90;;;;;;5002758;28;20197;-85
2021/09/09 11:51:59;;;;;;;9.35;8.52;;;29.20;99.90;;;;;;4990130;28;20256;-83
2021/09/09 11:54:30;;;;;;;13.50;8.27;;;29.20;99.90;;;;;;5012162;28;20220;-84
2021/09/09 11:57:13;;;;;;;9.05;8.20;;;29.80;99.90;;;;;;5010992;28;20181;-84
2021/09/09 11:59:55;;;;;;;8.70;8.05;;;30.50;99.90;;;;;;5002117;28;20589;-85
2021/09/09 12:02:27;;;;;;;8.30;7.60;;;31.30;99.90;;;;;;4966599;28;20185;-84
2021/09/09 12:04:53;;;;;;;9.52;8.18;;;32.00;99.30;;;;;;5023896;28;20184;-85
2021/09/09 12:07:23;;;;;;;9.18;8.45;;;30.80;99.30;;;;;;4989223;28;20200;-85
2021/09/09 12:09:59;;;;;;;10.77;8.70;;;31.00;99.20;;;;;;5019532;28;20262;-85
2021/09/09 12:12:29;;;;;;;9.25;8.55;;;31.10;99.70;;;;;;5024468;28;20279;-84
2021/09/09 12:15:02;;;;;;;9.02;8.13;;;29.60;99.90;;;;;;5034927;28;20196;-84
2021/09/09 12:17:28;;;;;;;9.00;8.30;;;29.70;99.90;;;;;;5041858;28;20176;-83
2021/09/09 12:20:07;;;;;;;9.38;8.30;;;31.20;99.40;;;;;;4994098;28;20203;-84
2021/09/09 12:22:53;;;;;;;10.57;9.52;;;30.70;98.90;;;;;;5024834;28;20243;-85
2021/09/09 12:25:30;;;;;;;10.05;9.05;;;31.00;99.20;;;;;;5017171;28;20200;-85
2021/09/09 12:28:11;;;;;;;10.05;9.20;;;30.60;99.80;;;;;;5020340;28;20195;-85
2021/09/09 12:30:49;;;;;;;13.75;8.40;;;29.80;99.90;;;;;;5034064;28;20219;-85
2021/09/09 12:33:20;;;;;;;9.82;9.13;;;30.20;99.90;;;;;;5024928;28;20188;-85
2021/09/09 12:36:12;;;;;;;8.23;7.53;;;31.20;99.40;;;;;;5040230;28;20323;-84
2021/09/09 12:38:41;;;;;;;9.30;8.25;;;32.50;97.90;;;;;;5039472;28;20176;-85
2021/09/09 12:41:09;;;;;;;13.15;8.75;;;31.70;97.10;;;;;;5036052;28;20192;-84
2021/09/09 12:43:39;;;;;;;9.57;8.65;;;32.30;95.20;;;;;;5023665;28;20180;-85